Argo, Texas
Current Conditions -  °F | °C
As of 1:55 AM on Monday 24 Nov 2014 (Local Time) from KOSA Reporting Station
Scattered Clouds Scattered Clouds  
Wind Chill: 50°   Ceiling: Unl
Heat Index: 50°   Visibility: 10mi
Dew Point: 39°   Wind: 14mph
Humidity: 66%   Direction: 300°WNW
Pressure: 29.82"   Gusts: 18mph
Location:  33.1839°N, 94.8612°W
Report Text: KOSA 240755Z AUTO 30012G16KT 10SM SCT037 10/04 A2982 RMK AO1 T01000040
Loading
Personal Weather Stations






























Interactive Weather Map New forecast layout! Learn more

10-Day Weather Forecast

Advertisements
Track Severe Weather on mobile